createdAt,value
2018-12-22T00:00:40.077Z,7.83
2018-12-22T00:03:08.556Z,9.67
2018-12-22T00:05:36.121Z,9.33
2018-12-22T00:08:03.678Z,7.93
2018-12-22T00:10:32.147Z,9.67
2018-12-22T00:13:02.483Z,9.30
2018-12-22T00:15:30.183Z,9.53
2018-12-22T00:17:57.795Z,7.70
2018-12-22T00:20:25.348Z,7.93
2018-12-22T00:22:53.003Z,8.97
2018-12-22T00:25:20.580Z,7.23
2018-12-22T00:27:48.129Z,6.90
2018-12-22T00:30:15.800Z,7.00
2018-12-22T00:32:46.389Z,6.83
2018-12-22T00:35:13.940Z,6.40
2018-12-22T00:37:41.498Z,6.77
2018-12-22T00:40:09.385Z,7.47
2018-12-22T00:42:36.953Z,7.03
2018-12-22T00:45:05.283Z,7.27
2018-12-22T00:47:32.843Z,6.73
2018-12-22T00:50:00.406Z,8.00
2018-12-22T00:52:27.960Z,7.33
2018-12-22T00:54:55.972Z,6.17
2018-12-22T00:57:23.533Z,6.07
2018-12-22T00:59:51.089Z,7.73
2018-12-22T01:02:18.650Z,9.03
2018-12-22T01:04:46.205Z,7.47
2018-12-22T01:07:13.755Z,8.33
2018-12-22T01:09:41.316Z,7.13
2018-12-22T01:12:08.865Z,6.60
2018-12-22T01:14:37.323Z,7.30
2018-12-22T01:17:04.878Z,6.50
2018-12-22T01:19:33.296Z,6.87
2018-12-22T01:22:00.854Z,7.43
2018-12-22T01:24:28.414Z,6.90
2018-12-22T01:26:55.968Z,7.17
2018-12-22T01:29:23.518Z,7.93
2018-12-22T01:31:51.068Z,6.00
2018-12-22T01:34:18.621Z,6.43
2018-12-22T01:36:47.442Z,6.77
2018-12-22T01:39:15.034Z,7.00
2018-12-22T01:41:42.579Z,6.00
2018-12-22T01:44:10.133Z,7.40
2018-12-22T01:46:37.689Z,8.07
2018-12-22T01:49:05.239Z,6.53
2018-12-22T01:51:32.801Z,5.83
2018-12-22T01:54:00.351Z,8.73
2018-12-22T01:56:27.896Z,6.73
2018-12-22T01:58:55.458Z,6.77
2018-12-22T02:01:23.019Z,7.27
2018-12-22T02:03:50.575Z,5.67
2018-12-22T02:06:18.125Z,5.93
2018-12-22T02:08:45.680Z,5.27
2018-12-22T02:11:13.231Z,6.40
2018-12-22T02:13:40.781Z,5.63
2018-12-22T02:16:08.329Z,4.80
2018-12-22T02:18:35.883Z,3.47
2018-12-22T02:21:03.436Z,3.23
2018-12-22T02:23:30.995Z,3.57
2018-12-22T02:25:58.547Z,3.47
2018-12-22T02:28:26.097Z,2.90
2018-12-22T02:30:53.647Z,3.30
2018-12-22T02:33:21.215Z,4.27
2018-12-22T02:35:48.870Z,4.20
2018-12-22T02:38:16.425Z,5.27
2018-12-22T02:40:43.984Z,5.93
2018-12-22T02:43:11.546Z,4.87
2018-12-22T02:45:39.104Z,4.73
2018-12-22T02:48:06.667Z,4.77
2018-12-22T02:50:34.228Z,5.70
2018-12-22T02:53:01.786Z,5.93
2018-12-22T02:55:29.332Z,5.90
2018-12-22T02:57:56.884Z,6.80
2018-12-22T03:00:24.444Z,6.57
2018-12-22T03:02:52.834Z,6.83
2018-12-22T03:05:20.387Z,6.27
2018-12-22T03:07:48.070Z,7.10
2018-12-22T03:10:15.624Z,6.43
2018-12-22T03:12:43.174Z,5.30
2018-12-22T03:15:10.728Z,6.27
2018-12-22T03:17:38.285Z,4.93
2018-12-22T03:20:05.864Z,5.10
2018-12-22T03:22:35.569Z,5.60
2018-12-22T03:25:03.155Z,3.83
2018-12-22T03:27:30.711Z,3.87
2018-12-22T03:29:58.267Z,4.50
2018-12-22T03:32:25.990Z,3.33
2018-12-22T03:34:56.936Z,3.63
2018-12-22T03:37:32.590Z,3.73
2018-12-22T03:40:04.070Z,3.07
2018-12-22T03:42:33.708Z,4.33
2018-12-22T03:45:01.801Z,3.47
2018-12-22T03:47:34.890Z,3.50
2018-12-22T03:52:42.427Z,3.73
2018-12-22T03:55:11.605Z,3.13
2018-12-22T03:57:42.624Z,3.07
2018-12-22T04:00:18.137Z,2.77
2018-12-22T04:02:48.877Z,3.10
2018-12-22T04:05:17.202Z,3.33
2018-12-22T04:07:45.219Z,3.47
2018-12-22T04:10:13.611Z,2.17
2018-12-22T04:12:41.162Z,2.87
2018-12-22T04:15:08.713Z,2.70
2018-12-22T04:17:36.259Z,2.57
2018-12-22T04:20:05.294Z,3.10
2018-12-22T04:22:32.852Z,2.90
2018-12-22T04:25:00.412Z,3.10
2018-12-22T04:27:28.268Z,3.03
2018-12-22T04:29:55.816Z,2.93
2018-12-22T04:32:24.247Z,2.90
2018-12-22T04:34:52.185Z,2.00
2018-12-22T04:37:19.734Z,2.60
2018-12-22T04:39:47.295Z,2.10
2018-12-22T04:42:14.850Z,2.00
2018-12-22T04:44:42.401Z,2.60
2018-12-22T04:47:11.920Z,2.17
2018-12-22T04:49:39.478Z,2.90
2018-12-22T04:52:07.028Z,3.60
2018-12-22T04:54:34.580Z,2.70
2018-12-22T04:57:02.267Z,2.30
2018-12-22T04:59:29.812Z,2.70
2018-12-22T05:01:57.362Z,2.70
2018-12-22T05:04:24.912Z,2.40
2018-12-22T05:06:52.467Z,2.40
2018-12-22T05:09:20.021Z,2.27
2018-12-22T05:11:47.814Z,2.67
2018-12-22T05:14:15.392Z,1.97
2018-12-22T05:16:42.947Z,2.47
2018-12-22T05:19:10.502Z,1.90
2018-12-22T05:21:38.053Z,2.20
2018-12-22T05:24:05.617Z,2.10
2018-12-22T05:26:33.421Z,1.47
2018-12-22T05:29:00.982Z,1.90
2018-12-22T05:31:28.535Z,2.13
2018-12-22T05:36:29.900Z,2.07
2018-12-22T05:38:57.465Z,2.03
2018-12-22T05:41:25.019Z,2.27
2018-12-22T05:43:52.572Z,2.07
2018-12-22T05:46:20.142Z,2.10
2018-12-22T05:48:47.705Z,2.17
2018-12-22T05:51:15.261Z,2.43
2018-12-22T05:53:43.100Z,2.07
2018-12-22T05:56:10.656Z,2.97
2018-12-22T05:58:38.394Z,2.90
2018-12-22T06:01:05.955Z,2.50
2018-12-22T06:03:33.512Z,2.67
2018-12-22T06:06:01.059Z,2.73
2018-12-22T06:08:28.622Z,3.00
2018-12-22T06:10:56.177Z,2.83
2018-12-22T06:13:23.730Z,3.20
2018-12-22T06:15:51.334Z,2.20
2018-12-22T06:18:18.884Z,2.27
2018-12-22T06:20:46.431Z,2.97
2018-12-22T06:23:14.200Z,2.47
2018-12-22T06:25:41.759Z,2.40
2018-12-22T06:28:10.348Z,2.63
2018-12-22T06:30:40.599Z,3.17
2018-12-22T06:33:08.150Z,2.70
2018-12-22T06:35:36.513Z,1.83
2018-12-22T06:38:04.084Z,2.07
2018-12-22T06:40:32.499Z,2.62
2018-12-22T06:43:02.536Z,2.20
2018-12-22T06:45:31.054Z,3.20
2018-12-22T06:47:58.599Z,2.37
2018-12-22T06:50:26.156Z,2.83
2018-12-22T06:52:53.729Z,2.60
2018-12-22T06:55:21.707Z,3.07
2018-12-22T06:57:49.260Z,3.27
2018-12-22T07:00:17.879Z,2.60
2018-12-22T07:02:45.667Z,2.40
2018-12-22T07:05:13.222Z,2.57
2018-12-22T07:07:41.374Z,2.73
2018-12-22T07:10:11.029Z,2.23
2018-12-22T07:12:39.132Z,2.47
2018-12-22T07:15:06.684Z,2.43
2018-12-22T07:17:34.236Z,2.23
2018-12-22T07:20:01.801Z,3.10
2018-12-22T07:22:29.486Z,2.50
2018-12-22T07:24:57.048Z,2.53
2018-12-22T07:27:24.598Z,2.87
2018-12-22T07:29:52.567Z,1.70
2018-12-22T07:32:20.118Z,2.20
2018-12-22T07:34:47.667Z,2.30
2018-12-22T07:37:15.849Z,2.50
2018-12-22T07:39:45.043Z,2.23
2018-12-22T07:44:51.917Z,2.70
2018-12-22T07:47:21.739Z,2.67
2018-12-22T07:49:50.025Z,3.37
2018-12-22T07:52:18.864Z,3.80
2018-12-22T07:54:46.984Z,2.70
2018-12-22T07:57:14.544Z,3.20
2018-12-22T07:59:42.099Z,2.97
2018-12-22T08:02:09.663Z,3.37
2018-12-22T08:04:37.233Z,3.07
2018-12-22T08:07:04.786Z,2.97
2018-12-22T08:09:32.347Z,3.97
2018-12-22T08:11:59.976Z,3.70
2018-12-22T08:14:28.071Z,2.73
2018-12-22T08:16:55.833Z,2.90
2018-12-22T08:19:23.392Z,3.03
2018-12-22T08:21:50.951Z,3.10
2018-12-22T08:24:18.869Z,3.10
2018-12-22T08:26:46.417Z,2.40
2018-12-22T08:29:13.960Z,1.90
2018-12-22T08:31:41.511Z,2.77
2018-12-22T08:34:09.068Z,2.73
2018-12-22T08:36:36.631Z,3.10
2018-12-22T08:39:04.859Z,2.70
2018-12-22T08:41:33.359Z,2.20
2018-12-22T08:44:00.990Z,3.30
2018-12-22T08:46:28.613Z,2.17
2018-12-22T08:48:56.172Z,2.20
2018-12-22T08:51:23.789Z,2.93
2018-12-22T08:53:51.750Z,2.30
2018-12-22T08:56:19.316Z,2.37
2018-12-22T08:58:46.906Z,3.07
2018-12-22T09:01:14.467Z,2.50
2018-12-22T09:03:43.004Z,2.17
2018-12-22T09:06:10.592Z,2.53
2018-12-22T09:08:38.471Z,2.03
2018-12-22T09:11:06.093Z,2.20
2018-12-22T09:13:33.679Z,1.73
2018-12-22T09:16:01.255Z,2.27
2018-12-22T09:18:28.817Z,2.67
2018-12-22T09:20:57.361Z,2.90
2018-12-22T09:23:25.496Z,2.87
2018-12-22T09:25:53.054Z,2.60
2018-12-22T09:28:20.608Z,2.77
2018-12-22T09:30:48.505Z,2.53
2018-12-22T09:33:16.068Z,5.20
2018-12-22T09:35:43.637Z,44.70
2018-12-22T09:38:11.197Z,52.87
2018-12-22T09:40:38.762Z,73.60
2018-12-22T09:43:06.349Z,102.63
2018-12-22T09:45:33.943Z,75.37
2018-12-22T09:48:01.499Z,67.53
2018-12-22T09:50:29.064Z,53.90
2018-12-22T09:57:49.464Z,6.07
2018-12-22T10:00:17.594Z,5.07
2018-12-22T10:02:45.152Z,3.63
2018-12-22T10:05:13.656Z,3.33
2018-12-22T10:07:41.227Z,3.00
2018-12-22T10:10:10.260Z,2.20
2018-12-22T10:12:37.811Z,3.30
2018-12-22T10:15:07.037Z,3.03
2018-12-22T10:17:34.592Z,2.13
2018-12-22T10:20:02.316Z,2.23
2018-12-22T10:22:30.335Z,2.47
2018-12-22T10:24:57.885Z,2.70
2018-12-22T10:27:25.447Z,2.87
2018-12-22T10:29:53.331Z,2.77
2018-12-22T10:32:20.882Z,2.40
2018-12-22T10:34:48.433Z,2.40
2018-12-22T10:37:15.987Z,2.13
2018-12-22T10:39:43.549Z,2.23
2018-12-22T10:42:11.112Z,2.03
2018-12-22T10:44:38.675Z,2.90
2018-12-22T10:47:06.233Z,2.93
2018-12-22T10:49:33.789Z,2.37
2018-12-22T10:52:01.348Z,2.67
2018-12-22T10:54:28.896Z,2.50
2018-12-22T10:56:56.448Z,2.57
2018-12-22T10:59:24.172Z,1.90
2018-12-22T11:01:51.793Z,1.90
2018-12-22T11:04:19.342Z,2.00
2018-12-22T11:06:47.488Z,2.10
2018-12-22T11:09:15.630Z,2.20
2018-12-22T11:11:43.193Z,2.53
2018-12-22T11:14:11.955Z,2.90
2018-12-22T11:16:39.858Z,2.50
2018-12-22T11:19:07.427Z,1.93
2018-12-22T11:21:35.019Z,2.13
2018-12-22T11:24:02.979Z,2.17
2018-12-22T11:26:30.944Z,2.03
2018-12-22T11:28:58.511Z,2.60
2018-12-22T11:31:26.055Z,2.00
2018-12-22T11:33:53.617Z,3.03
2018-12-22T11:36:21.606Z,3.93
2018-12-22T11:38:49.159Z,4.10
2018-12-22T11:41:16.717Z,2.93
2018-12-22T11:43:44.264Z,2.23
2018-12-22T11:46:11.809Z,2.37
2018-12-22T11:48:39.638Z,3.70
2018-12-22T11:51:07.986Z,2.77
2018-12-22T11:53:35.535Z,3.20
2018-12-22T11:56:03.117Z,3.93
2018-12-22T11:58:32.249Z,3.03
2018-12-22T12:00:59.810Z,2.50
2018-12-22T12:03:29.802Z,2.43
2018-12-22T12:06:01.550Z,3.27
2018-12-22T12:08:30.205Z,2.60
2018-12-22T12:10:57.756Z,3.20
2018-12-22T12:13:25.309Z,3.52
2018-12-22T12:15:52.864Z,2.33
2018-12-22T12:18:29.395Z,2.73
2018-12-22T12:20:56.973Z,3.33
2018-12-22T12:23:24.524Z,3.00
2018-12-22T12:25:52.089Z,2.47
2018-12-22T12:28:19.640Z,2.17
2018-12-22T12:30:47.189Z,3.90
2018-12-22T12:33:14.744Z,2.90
2018-12-22T12:35:42.291Z,2.50
2018-12-22T12:38:09.843Z,3.87
2018-12-22T12:40:37.389Z,2.27
2018-12-22T12:43:04.939Z,3.60
2018-12-22T12:45:32.489Z,2.97
2018-12-22T12:48:00.042Z,2.87
2018-12-22T12:50:27.603Z,3.10
2018-12-22T12:52:55.162Z,3.40
2018-12-22T12:55:22.720Z,3.30
2018-12-22T12:57:50.281Z,2.93
2018-12-22T13:00:19.018Z,3.40
2018-12-22T13:02:47.026Z,3.30
2018-12-22T13:05:14.577Z,3.50
2018-12-22T13:07:42.125Z,2.83
2018-12-22T13:10:10.963Z,3.73
2018-12-22T13:12:40.536Z,2.80
2018-12-22T13:15:10.076Z,3.43
2018-12-22T13:17:37.635Z,2.70
2018-12-22T13:20:08.111Z,4.10
2018-12-22T13:22:35.656Z,4.20
2018-12-22T13:25:03.920Z,3.03
2018-12-22T13:27:31.471Z,4.37
2018-12-22T13:29:59.890Z,3.73
2018-12-22T13:32:27.451Z,3.13
2018-12-22T13:34:55.009Z,4.03
2018-12-22T13:37:22.570Z,4.53
2018-12-22T13:39:50.372Z,3.70
2018-12-22T13:42:17.923Z,3.50
2018-12-22T13:44:45.485Z,3.80
2018-12-22T13:47:17.197Z,4.20
2018-12-22T13:49:45.571Z,4.97
2018-12-22T13:52:13.236Z,3.73
2018-12-22T13:54:40.799Z,4.80
2018-12-22T13:57:08.364Z,3.17
2018-12-22T13:59:35.914Z,3.53
2018-12-22T14:02:04.222Z,4.77
2018-12-22T14:04:31.770Z,3.00
2018-12-22T14:06:59.322Z,3.40
2018-12-22T14:09:26.890Z,3.23
2018-12-22T14:11:54.454Z,4.70
2018-12-22T14:14:22.003Z,3.33
2018-12-22T14:16:49.630Z,3.33
2018-12-22T14:19:17.192Z,3.60
2018-12-22T14:21:44.745Z,3.20
2018-12-22T14:24:13.976Z,3.70
2018-12-22T14:26:41.528Z,4.00
2018-12-22T14:29:09.128Z,2.93
2018-12-22T14:31:36.682Z,4.60
2018-12-22T14:34:07.058Z,2.97
2018-12-22T14:36:34.620Z,2.73
2018-12-22T14:39:02.176Z,3.97
2018-12-22T14:41:29.730Z,4.53
2018-12-22T14:43:57.285Z,3.37
2018-12-22T14:46:25.370Z,3.57
2018-12-22T14:48:53.847Z,3.02
2018-12-22T14:51:21.484Z,3.27
2018-12-22T14:53:49.069Z,3.70
2018-12-22T14:56:19.901Z,3.50
2018-12-22T14:58:47.462Z,4.17
2018-12-22T15:01:15.016Z,3.73
2018-12-22T15:03:43.166Z,4.20
2018-12-22T15:06:10.721Z,3.63
2018-12-22T15:08:38.274Z,5.37
2018-12-22T15:11:05.844Z,3.73
2018-12-22T15:13:33.394Z,3.27
2018-12-22T15:16:02.279Z,4.77
2018-12-22T15:18:29.839Z,3.87
2018-12-22T15:21:06.986Z,4.13
2018-12-22T15:23:34.536Z,3.57
2018-12-22T15:26:02.822Z,3.83
2018-12-22T15:28:30.488Z,4.30
2018-12-22T15:30:58.050Z,3.37
2018-12-22T15:33:25.607Z,3.80
2018-12-22T15:35:53.164Z,4.47
2018-12-22T15:38:20.724Z,3.50
2018-12-22T15:40:48.316Z,3.80
2018-12-22T15:43:15.868Z,4.17
2018-12-22T15:45:43.424Z,3.73
2018-12-22T15:48:11.068Z,4.00
2018-12-22T15:50:40.230Z,3.10
2018-12-22T15:53:07.779Z,4.00
2018-12-22T15:55:35.326Z,3.23
2018-12-22T15:58:02.876Z,3.47
2018-12-22T16:00:31.087Z,3.77
2018-12-22T16:02:58.743Z,3.33
2018-12-22T16:05:26.304Z,4.10
2018-12-22T16:07:53.856Z,3.57
2018-12-22T16:10:21.403Z,3.83
2018-12-22T16:12:48.958Z,4.20
2018-12-22T16:15:20.110Z,4.27
2018-12-22T16:17:47.772Z,4.80
2018-12-22T16:20:15.322Z,4.20
2018-12-22T16:22:44.840Z,3.20
2018-12-22T16:25:12.876Z,3.23
2018-12-22T16:27:41.064Z,3.27
2018-12-22T16:30:25.494Z,4.07
2018-12-22T16:33:01.420Z,3.80
2018-12-22T16:35:22.631Z,2.83
2018-12-22T16:37:50.185Z,3.73
2018-12-22T16:40:17.735Z,3.07
2018-12-22T16:42:45.284Z,3.27
2018-12-22T16:45:15.033Z,3.97
2018-12-22T16:47:42.649Z,3.47
2018-12-22T16:50:11.804Z,3.43
2018-12-22T16:52:39.382Z,4.23
2018-12-22T16:55:14.644Z,4.00
2018-12-22T16:57:51.816Z,2.80
2018-12-22T17:00:22.284Z,4.73
2018-12-22T17:02:52.489Z,4.27
2018-12-22T17:05:19.811Z,3.40
2018-12-22T17:07:47.371Z,3.40
2018-12-22T17:10:14.928Z,6.17
2018-12-22T17:12:42.485Z,6.87
2018-12-22T17:15:11.825Z,5.23
2018-12-22T17:17:39.434Z,5.57
2018-12-22T17:20:11.362Z,5.70
2018-12-22T17:22:40.900Z,3.73
2018-12-22T17:25:10.424Z,3.80
2018-12-22T17:27:37.976Z,5.30
2018-12-22T17:30:06.984Z,5.27
2018-12-22T17:32:34.549Z,5.77
2018-12-22T17:35:02.105Z,6.20
2018-12-22T17:37:29.993Z,6.10
2018-12-22T17:39:57.543Z,5.27
2018-12-22T17:42:25.096Z,4.83
2018-12-22T17:44:52.652Z,3.47
2018-12-22T17:47:20.202Z,3.40
2018-12-22T17:49:47.761Z,3.17
2018-12-22T17:52:15.321Z,2.50
2018-12-22T17:54:42.876Z,3.30
2018-12-22T17:57:10.427Z,3.03
2018-12-22T17:59:37.976Z,3.23
2018-12-22T18:02:05.560Z,3.30
2018-12-22T18:04:33.108Z,2.80
2018-12-22T18:07:00.705Z,3.77
2018-12-22T18:09:28.273Z,3.30
2018-12-22T18:11:55.834Z,3.33
2018-12-22T18:14:23.388Z,3.70
2018-12-22T18:16:50.937Z,3.70
2018-12-22T18:19:18.498Z,4.43
2018-12-22T18:21:46.056Z,3.30
2018-12-22T18:24:13.617Z,4.20
2018-12-22T18:26:41.167Z,3.27
2018-12-22T18:29:08.723Z,3.17
2018-12-22T18:31:36.276Z,3.17
2018-12-22T18:34:03.832Z,3.13
2018-12-22T18:36:31.397Z,3.10
2018-12-22T18:38:58.968Z,3.10
2018-12-22T18:41:26.536Z,3.43
2018-12-22T18:43:54.116Z,3.03
2018-12-22T18:46:21.672Z,2.50
2018-12-22T18:48:49.231Z,3.60
2018-12-22T18:51:16.821Z,4.30
2018-12-22T18:53:44.385Z,3.53
2018-12-22T18:56:11.940Z,3.07
2018-12-22T18:58:39.503Z,3.07
2018-12-22T19:01:07.076Z,2.53
2018-12-22T19:03:34.675Z,2.50
2018-12-22T19:06:02.303Z,2.80
2018-12-22T19:08:29.868Z,3.53
2018-12-22T19:10:57.416Z,2.93
2018-12-22T19:13:25.228Z,3.03
2018-12-22T19:15:52.776Z,4.17
2018-12-22T19:18:20.331Z,3.57
2018-12-22T19:20:47.885Z,2.63
2018-12-22T19:23:15.435Z,3.03
2018-12-22T19:25:42.985Z,2.70
2018-12-22T19:28:11.567Z,2.70
2018-12-22T19:30:39.115Z,2.93
2018-12-22T19:33:06.704Z,3.20
2018-12-22T19:35:34.252Z,2.30
2018-12-22T19:38:01.805Z,3.07
2018-12-22T19:40:29.363Z,2.60
2018-12-22T19:42:57.231Z,3.33
2018-12-22T19:45:26.076Z,2.60
2018-12-22T19:47:53.628Z,3.13
2018-12-22T19:50:21.182Z,3.07
2018-12-22T19:52:48.735Z,2.60
2018-12-22T19:55:16.292Z,2.80
2018-12-22T19:57:43.848Z,2.83
2018-12-22T20:00:11.400Z,3.53
2018-12-22T20:02:38.968Z,4.13
2018-12-22T20:05:06.549Z,3.47
2018-12-22T20:07:34.097Z,2.83
2018-12-22T20:10:01.652Z,2.73
2018-12-22T20:12:29.222Z,2.50
2018-12-22T20:14:56.798Z,2.80
2018-12-22T20:17:24.348Z,2.60
2018-12-22T20:19:51.896Z,2.87
2018-12-22T20:22:19.447Z,3.93
2018-12-22T20:24:47.021Z,2.70
2018-12-22T20:27:14.959Z,2.57
2018-12-22T20:29:42.522Z,2.87
2018-12-22T20:32:10.372Z,3.50
2018-12-22T20:34:37.931Z,2.93
2018-12-22T20:37:05.476Z,3.17
2018-12-22T20:39:33.028Z,2.80
2018-12-22T20:42:00.583Z,2.97
2018-12-22T20:44:28.134Z,3.07
2018-12-22T20:46:55.683Z,3.17
2018-12-22T20:49:23.236Z,3.40
2018-12-22T20:51:50.789Z,3.07
2018-12-22T20:54:18.340Z,3.20
2018-12-22T20:56:46.316Z,4.13
2018-12-22T20:59:13.867Z,2.93
2018-12-22T21:01:41.825Z,2.80
2018-12-22T21:04:09.589Z,3.00
2018-12-22T21:06:37.145Z,3.80
2018-12-22T21:09:05.784Z,3.50
2018-12-22T21:11:33.364Z,3.93
2018-12-22T21:14:00.911Z,3.50
2018-12-22T21:16:28.468Z,3.17
2018-12-22T21:18:56.033Z,2.87
2018-12-22T21:21:23.588Z,3.03
2018-12-22T21:23:51.136Z,3.13
2018-12-22T21:26:18.684Z,3.27
2018-12-22T21:28:46.232Z,3.73
2018-12-22T21:31:13.783Z,3.23
2018-12-22T21:33:41.434Z,3.07
2018-12-22T21:36:08.996Z,4.37
2018-12-22T21:38:36.637Z,3.80
2018-12-22T21:41:04.205Z,3.03
2018-12-22T21:43:31.762Z,3.00
2018-12-22T21:45:59.308Z,2.90
2018-12-22T21:48:27.220Z,3.40
2018-12-22T21:50:54.776Z,3.57
2018-12-22T22:00:25.935Z,2.83
2018-12-22T22:02:53.488Z,2.90
2018-12-22T22:05:21.037Z,3.00
2018-12-22T22:07:48.616Z,3.33
2018-12-22T22:10:16.212Z,3.03
2018-12-22T22:12:43.758Z,5.03
2018-12-22T22:15:11.323Z,3.30
2018-12-22T22:17:38.904Z,2.73
2018-12-22T22:20:06.464Z,3.37
2018-12-22T22:22:34.027Z,2.80
2018-12-22T22:25:02.609Z,2.93
2018-12-22T22:27:31.876Z,2.97
2018-12-22T22:29:59.439Z,2.73
2018-12-22T22:32:26.992Z,2.30
2018-12-22T22:34:54.547Z,2.97
2018-12-22T22:37:22.098Z,3.77
2018-12-22T22:39:49.658Z,2.40
2018-12-22T22:42:17.220Z,2.40
2018-12-22T22:44:45.104Z,2.47
2018-12-22T22:47:12.659Z,2.90
2018-12-22T22:49:40.212Z,2.77
2018-12-22T22:52:07.772Z,2.70
2018-12-22T22:54:36.136Z,2.83
2018-12-22T22:57:03.683Z,2.83
2018-12-22T22:59:31.243Z,2.37
2018-12-22T23:01:58.791Z,3.70
2018-12-22T23:04:26.353Z,3.70
2018-12-22T23:06:53.968Z,2.67
2018-12-22T23:09:21.524Z,3.80
2018-12-22T23:11:49.105Z,3.43
2018-12-22T23:14:16.759Z,2.87
2018-12-22T23:16:44.341Z,2.93
2018-12-22T23:19:11.905Z,2.90
2018-12-22T23:21:39.484Z,3.17
2018-12-22T23:24:07.060Z,3.03
2018-12-22T23:26:34.607Z,4.23
2018-12-22T23:29:02.160Z,3.40
2018-12-22T23:31:29.720Z,3.17
2018-12-22T23:33:57.279Z,2.83
2018-12-22T23:36:24.847Z,2.90
2018-12-22T23:38:52.391Z,2.63
2018-12-22T23:41:19.936Z,4.17
2018-12-22T23:43:48.412Z,3.57
2018-12-22T23:46:15.964Z,3.60
2018-12-22T23:48:43.523Z,2.93
2018-12-22T23:51:11.115Z,2.73
2018-12-22T23:53:38.697Z,2.70
2018-12-22T23:56:06.294Z,2.33
2018-12-22T23:58:33.852Z,2.90
